Bonjour et bienvenue! Nous sommes le Mardi 28 Mars 2017 - 15:48z -----------------Prochaine permanence le 06/04/2017 de 12h45 à 13h45 à l'ENAC - G022
 

/ Bienvenue sur la page de l'aéroclub de l'ENAC /

Bienvenue sur le Site

L'Aéroclub de l'ENAC est situé sur l'aérodrome de Balma Lasbordes, en bordure de la rocade Est, sortie route de Castres.

Dans cet aéroclub vous aurez l'occasion de côtoyer les étudiants, technicien, ingénieur ou pilote de ligne formés à l'ENAC, ainsi que d'autres membres venant de tous horizons professionnels.

Bien que portant le nom de l'ENAC, notre aéroclub est ouvert à toutes et tous! Alors n'hésitez pas!


Bonne visite !

 

Dernière modification par Romain F. le 24 Juin 2016


/ Les dernières news... /
(Cliquez sur la bannière défilante pour accéder aux news complètes)

- Permanences de l'Aeroclub a l'ENAC -- Photos du week-end Peinture -- Rallye Toulouse Saint-Louis -- Goodies ACENAC -- Départ autour du monde -


Météo à Blagnac (Source : NOAA)
2017/03/28 15:30 LFBO 281530Z AUTO 31007KT 280V340 CAVOK 20/06 Q1025 NOSIG

Les coordonnées de l'aéroclub
Aéroclub de l'ENAC
38 av Jean René Lagasse
Aérodrome de TOULOUSE LASBORDES
31130 BALMA

Tél & Fax: 05 61 20 67 34
Mail : contact (at) acenac.org
 


 
CSS Valide !